Petange, Luxembourg
Current Conditions -  °F | °C
As of 3:20 AM on Friday 21 Nov 2014 (Local Time) from ELLX Reporting Station
NA  
Wind Chill: 32°   Ceiling: NA
Heat Index: 37°   Visibility: NA
Dew Point: 37°   Wind: 7mph
Humidity: 100%   Direction: 60°ENE
Pressure: 30.18"   Gusts: NA
Location:  49.56°N, 5.88°E
Report Text: ELLX 210220Z AUTO 06006KT //// 03/03 Q1022
Loading
Personal Weather Stations






























Interactive Weather Map New forecast layout! Learn more

10-Day Weather Forecast

Advertisements
Track Severe Weather on mobile